Safmarine Limpopo — 4RBK — position and weather

sailwx.info

Track history (hours):
 
Tides and Currents Weather Stations Pressure Air Temp Water Temp Dewpoint Dewpoint Depression Visibility Wind Speed Wind Dir Waves Ship Positions

Safmarine Limpopo

Last reported at 2014-May-25 08:29 UTC. Time now 2014-Jul-25 06:50 UTC.
Position N 49°36' W 000°30'.
Warning: this ship's position is months out of date.

Length 140 m; draft 8.7 m.

Type: Ship (hazmat cat A). MMSI: 417222324.

Date/timePositionNaut miles runAvg speedWind from/ knotsBaromVisibWave heightAir tempDewpointWater temp
2014-May-25 08:29N 49°36' W 000°30'1314.1
2014-May-25 07:33N 49°31' W 000°12'1312.7
2014-May-25 06:33N 49°26' E 000°06'1111.2
2014-May-25 05:33N 49°27' E 000°23'9 7.3
2014-May-25 04:20N 49°26' E 000°37'3 0.1
2014-May-24 04:08N 49°27' E 000°33'6 9.4
2014-May-24 03:33N 49°27' E 000°25'1413.7
2014-May-24 02:33N 49°26' E 000°04'1110.6
2014-May-24 01:33N 49°30' W 000°11'8 7.9
2014-May-24 00:33N 49°33' W 000°22'1 1.0
2014-May-23 23:27N 49°33' W 000°21'1 1.3
2014-May-23 22:33N 49°32' W 000°20'6 4.3
2014-May-23 21:10N 49°37' W 000°26'4913.4
2014-May-23 17:28N 50°25' W 000°13'1313.1
2014-May-23 16:29N 50°30' E 000°06'1213.0
2014-May-23 15:33N 50°33' E 000°24'1413.6
2014-May-23 14:33N 50°38' E 000°44'1515.0
2014-May-23 13:33N 50°47' E 001°04'1815.8
2014-May-23 12:26N 50°59' E 001°24'1315.1
2014-May-23 11:33N 51°08' E 001°39'2512.2
2014-May-23 09:32N 51°23' E 002°10'1313.1
2014-May-23 08:33N 51°23' E 002°31'1212.3
2014-May-23 07:33N 51°22' E 002°51'1211.7
2014-May-23 06:33N 51°24' E 003°09'1111.0
2014-May-23 05:33N 51°25' E 003°27'9 9.3
2014-May-23 04:34N 51°26' E 003°42'10 9.8
2014-May-23 03:33N 51°23' E 003°57'9 9.0
2014-May-23 02:33N 51°24' E 004°11'9 4.7
2014-May-23 00:33N 51°16' E 004°20'2 2.1
2014-May-22 23:33N 51°16' E 004°24'0 0.0
2014-May-22 22:33N 51°16' E 004°24'0 0.0
2014-May-22 21:33N 51°16' E 004°24'0 0.0
2014-May-22 20:33N 51°16' E 004°24'0 0.0
2014-May-22 19:33N 51°16' E 004°24'0 0.0
2014-May-22 18:33N 51°16' E 004°24'0 0.0
2014-May-22 17:33N 51°16' E 004°24'0 0.0
2014-May-22 16:33N 51°16' E 004°24'0 0.0
2014-May-22 15:33N 51°16' E 004°24'0 0.0
2014-May-22 14:33N 51°16' E 004°24'0 0.0
2014-May-22 13:33N 51°16' E 004°24'0 0.0
2014-May-22 12:33N 51°16' E 004°24'0 0.0
2014-May-22 11:33N 51°16' E 004°24'0 0.0
2014-May-22 10:33N 51°16' E 004°24'0 0.0
2014-May-22 09:33N 51°16' E 004°24'0 0.0
2014-May-22 08:33N 51°16' E 004°24'0 0.0
2014-May-22 07:33N 51°16' E 004°24'0 0.0
2014-May-22 06:36N 51°16' E 004°24'0 0.0
2014-May-22 05:33N 51°16' E 004°24'0 0.0
2014-May-22 04:33N 51°16' E 004°24'0 0.0
2014-May-22 03:33N 51°16' E 004°24'0 0.0
2014-May-22 02:33N 51°16' E 004°24'0 0.0
2014-May-22 01:33N 51°16' E 004°24'0 0.0
2014-May-22 00:33N 51°16' E 004°24'0 0.0
2014-May-21 23:45N 51°16' E 004°24'0 0.0
2014-May-21 22:33N 51°16' E 004°24'0 0.0
2014-May-21 21:33N 51°16' E 004°24'0 0.0
2014-May-21 20:33N 51°16' E 004°24'0 0.0
2014-May-21 19:33N 51°16' E 004°24'0 0.0
2014-May-21 18:33N 51°16' E 004°24'0 0.0
2014-May-21 16:33N 51°16' E 004°24'0 0.0
2014-May-21 15:33N 51°16' E 004°24'0 0.0
2014-May-21 14:33N 51°16' E 004°24'0 0.0
2014-May-21 12:33N 51°16' E 004°24'0 0.0
2014-May-21 11:33N 51°16' E 004°24'0 0.0
2014-May-21 10:33N 51°16' E 004°24'0 0.0
2014-May-21 09:33N 51°16' E 004°24'0 0.0
2014-May-21 08:33N 51°16' E 004°24'0 0.0
2014-May-21 07:33N 51°16' E 004°24'0 0.0
2014-May-21 06:33N 51°16' E 004°24'0 0.0
2014-May-21 05:33N 51°16' E 004°24'0 0.0
2014-May-21 04:33N 51°16' E 004°24'0 0.0
2014-May-21 03:33N 51°16' E 004°24'0 0.0
2014-May-21 02:33N 51°16' E 004°24'0 0.0
2014-May-21 01:33N 51°16' E 004°24'0 0.0
2014-May-21 00:33N 51°16' E 004°24'0 0.0
2014-May-20 23:33N 51°16' E 004°24'0 0.0
2014-May-20 22:30N 51°16' E 004°24'0 0.0
2014-May-20 21:33N 51°16' E 004°24'0 0.0
2014-May-20 20:30N 51°16' E 004°24'0 0.0
2014-May-20 19:33N 51°16' E 004°24'0 0.0
2014-May-20 18:33N 51°16' E 004°24'0 0.0
2014-May-20 17:33N 51°16' E 004°24'0 0.0
2014-May-20 16:33N 51°16' E 004°24'0 0.0
2014-May-20 15:33N 51°16' E 004°24'0 0.0
2014-May-20 14:33N 51°16' E 004°24'0 0.0
2014-May-20 13:33N 51°16' E 004°24'0 0.0
2014-May-20 12:33N 51°16' E 004°24'0 0.0
2014-May-20 11:33N 51°16' E 004°24'0 0.0
2014-May-20 10:33N 51°16' E 004°24'0 0.0
2014-May-20 09:33N 51°16' E 004°24'0 0.0
2014-May-20 08:33N 51°16' E 004°24'0 0.0
2014-May-20 07:33N 51°16' E 004°24'0 0.0
2014-May-20 06:33N 51°16' E 004°24'0 0.0
2014-May-20 05:33N 51°16' E 004°24'0 0.0
2014-May-20 04:33N 51°16' E 004°24'0 0.0
2014-May-20 03:33N 51°16' E 004°24'0 0.0
2014-May-20 02:33N 51°16' E 004°24'0 0.0
2014-May-20 01:33N 51°16' E 004°24'0 0.0
2014-May-20 00:33N 51°16' E 004°24'0 0.0
2014-May-19 23:33N 51°16' E 004°24'0 0.0
2014-May-19 22:33N 51°16' E 004°24'0 0.0
2014-May-19 21:33N 51°16' E 004°24'0 0.1
2014-May-19 20:33N 51°16' E 004°23'0 0.0
2014-May-19 19:33N 51°16' E 004°23'0 0.0
2014-May-19 18:30N 51°16' E 004°23'0 0.0
2014-May-19 17:33N 51°16' E 004°23'0 0.0
2014-May-19 15:33N 51°16' E 004°23'0 0.0
2014-May-19 14:33N 51°16' E 004°23'0 0.0
2014-May-19 13:33N 51°16' E 004°23'0 0.0
2014-May-19 12:33N 51°16' E 004°23'0 0.0
2014-May-19 11:33N 51°16' E 004°23'0 0.0
2014-May-19 10:33N 51°16' E 004°23'0 0.0
2014-May-19 09:30N 51°16' E 004°23'0 0.0
2014-May-19 08:33N 51°16' E 004°23'0 0.0
2014-May-19 07:33N 51°16' E 004°23'0 0.0
2014-May-19 06:33N 51°16' E 004°23'0 0.0
2014-May-19 05:33N 51°16' E 004°23'0 0.0
2014-May-19 04:33N 51°16' E 004°23'0 0.0
2014-May-19 03:33N 51°16' E 004°23'0 0.0
2014-May-19 02:33N 51°16' E 004°23'0 0.0
2014-May-19 01:33N 51°16' E 004°23'0 0.0
2014-May-19 00:33N 51°16' E 004°23'0 0.0
2014-May-18 23:33N 51°16' E 004°23'0 0.0
2014-May-18 22:33N 51°16' E 004°23'0 0.0
2014-May-18 21:33N 51°16' E 004°23'0 0.0
2014-May-18 20:33N 51°16' E 004°23'0 0.0
2014-May-18 19:33N 51°16' E 004°23'0 0.0
2014-May-18 18:33N 51°16' E 004°23'0 0.0
2014-May-18 17:33N 51°16' E 004°23'1 0.8
2014-May-18 16:33N 51°15' E 004°23'5 5.3
2014-May-18 15:33N 51°19' E 004°19'2 1.7
2014-May-18 14:33N 51°21' E 004°17'4 3.8
2014-May-18 13:33N 51°23' E 004°13'9 9.2
2014-May-18 12:33N 51°26' E 003°58'10 9.7
2014-May-18 11:33N 51°22' E 003°44'9 8.5
2014-May-18 10:33N 51°27' E 003°32'1312.9
2014-May-18 09:33N 51°38' E 003°21'1211.1
2014-May-18 08:30N 51°46' E 003°07'9 9.6
2014-May-18 07:33N 51°48' E 002°53'1612.1
2014-May-18 06:13N 52°02' E 002°40'4311.7
2014-May-18 02:33N 52°45' E 002°40'30912.7
2014-May-17 02:16N 57°09' W 002°02'2 2.4
2014-May-17 01:32N 57°09' W 002°05'0 0.0
2014-May-17 00:32N 57°09' W 002°05'0 0.0
2014-May-16 23:32N 57°09' W 002°05'0 0.0
2014-May-16 22:32N 57°09' W 002°05'0 0.0
2014-May-16 21:32N 57°09' W 002°05'0 0.0
2014-May-16 20:32N 57°09' W 002°05'0 0.0
2014-May-16 19:26N 57°09' W 002°05'0 0.0
2014-May-16 18:32N 57°09' W 002°05'0 0.0
2014-May-16 17:26N 57°09' W 002°05'0 0.0
2014-May-16 16:20N 57°09' W 002°05'0 0.0
2014-May-16 15:32N 57°09' W 002°05'0 0.0
2014-May-16 14:20N 57°09' W 002°05'0 0.0
2014-May-16 13:32N 57°09' W 002°05'0 0.0
2014-May-16 12:29N 57°09' W 002°05'0 0.0
2014-May-16 11:32N 57°09' W 002°05'0 0.0
2014-May-16 10:26N 57°09' W 002°05'0 0.0
2014-May-16 09:32N 57°09' W 002°05'0 0.0
2014-May-16 08:29N 57°09' W 002°05'0 0.0
2014-May-16 07:32N 57°09' W 002°05'0 0.0
2014-May-16 06:32N 57°09' W 002°05'0 0.0
2014-May-16 05:26N 57°09' W 002°05'0 0.0
2014-May-16 04:20N 57°09' W 002°05'0 0.0
2014-May-16 03:32N 57°09' W 002°05'0 0.0
2014-May-16 02:32N 57°09' W 002°05'0 0.0
2014-May-16 01:32N 57°09' W 002°05'0 0.0
2014-May-16 00:32N 57°09' W 002°05'0 0.0
2014-May-15 23:26N 57°09' W 002°05'0 0.0
2014-May-15 22:32N 57°09' W 002°05'0 0.0
2014-May-15 21:32N 57°09' W 002°05'0 0.0
2014-May-15 20:29N 57°09' W 002°05'0 0.0
2014-May-15 19:32N 57°09' W 002°05'0 0.0
2014-May-15 18:32N 57°09' W 002°05'0 0.0
2014-May-15 17:32N 57°09' W 002°05'0 0.0
2014-May-15 15:23N 57°09' W 002°05'0 0.0
2014-May-15 14:32N 57°09' W 002°05'0 0.0
2014-May-15 13:32N 57°09' W 002°05'0 0.0
2014-May-15 12:29N 57°09' W 002°05'0 0.0
2014-May-15 11:32N 57°09' W 002°05'0 0.0
2014-May-15 10:32N 57°09' W 002°05'0 0.0
2014-May-15 09:32N 57°09' W 002°05'  
Track history (hours):
 
Tides and Currents Weather Stations Pressure Air Temp Water Temp Dewpoint Dewpoint Depression Visibility Wind Speed Wind Dir Waves Ship Positions

Safmarine Limpopo

Last reported at 2014-May-25 08:29 UTC. Time now 2014-Jul-25 06:50 UTC.
Position N 49°36' W 000°30'.
Warning: this ship's position is months out of date.

Length 140 m; draft 8.7 m.

Type: Ship (hazmat cat A). MMSI: 417222324.

Date/timePositionNaut miles runAvg speedWind from/ knotsBaromVisibWave heightAir tempDewpointWater temp
2014-May-25 08:29N 49°36' W 000°30'1314.1
2014-May-25 07:33N 49°31' W 000°12'1312.7
2014-May-25 06:33N 49°26' E 000°06'1111.2
2014-May-25 05:33N 49°27' E 000°23'9 7.3
2014-May-25 04:20N 49°26' E 000°37'3 0.1
2014-May-24 04:08N 49°27' E 000°33'6 9.4
2014-May-24 03:33N 49°27' E 000°25'1413.7
2014-May-24 02:33N 49°26' E 000°04'1110.6
2014-May-24 01:33N 49°30' W 000°11'8 7.9
2014-May-24 00:33N 49°33' W 000°22'1 1.0
2014-May-23 23:27N 49°33' W 000°21'1 1.3
2014-May-23 22:33N 49°32' W 000°20'6 4.3
2014-May-23 21:10N 49°37' W 000°26'4913.4
2014-May-23 17:28N 50°25' W 000°13'1313.1
2014-May-23 16:29N 50°30' E 000°06'1213.0
2014-May-23 15:33N 50°33' E 000°24'1413.6
2014-May-23 14:33N 50°38' E 000°44'1515.0
2014-May-23 13:33N 50°47' E 001°04'1815.8
2014-May-23 12:26N 50°59' E 001°24'1315.1
2014-May-23 11:33N 51°08' E 001°39'2512.2
2014-May-23 09:32N 51°23' E 002°10'1313.1
2014-May-23 08:33N 51°23' E 002°31'1212.3
2014-May-23 07:33N 51°22' E 002°51'1211.7
2014-May-23 06:33N 51°24' E 003°09'1111.0
2014-May-23 05:33N 51°25' E 003°27'9 9.3
2014-May-23 04:34N 51°26' E 003°42'10 9.8
2014-May-23 03:33N 51°23' E 003°57'9 9.0
2014-May-23 02:33N 51°24' E 004°11'9 4.7
2014-May-23 00:33N 51°16' E 004°20'2 2.1
2014-May-22 23:33N 51°16' E 004°24'0 0.0
2014-May-22 22:33N 51°16' E 004°24'0 0.0
2014-May-22 21:33N 51°16' E 004°24'0 0.0
2014-May-22 20:33N 51°16' E 004°24'0 0.0
2014-May-22 19:33N 51°16' E 004°24'0 0.0
2014-May-22 18:33N 51°16' E 004°24'0 0.0
2014-May-22 17:33N 51°16' E 004°24'0 0.0
2014-May-22 16:33N 51°16' E 004°24'0 0.0
2014-May-22 15:33N 51°16' E 004°24'0 0.0
2014-May-22 14:33N 51°16' E 004°24'0 0.0
2014-May-22 13:33N 51°16' E 004°24'0 0.0
2014-May-22 12:33N 51°16' E 004°24'0 0.0
2014-May-22 11:33N 51°16' E 004°24'0 0.0
2014-May-22 10:33N 51°16' E 004°24'0 0.0
2014-May-22 09:33N 51°16' E 004°24'0 0.0
2014-May-22 08:33N 51°16' E 004°24'0 0.0
2014-May-22 07:33N 51°16' E 004°24'0 0.0
2014-May-22 06:36N 51°16' E 004°24'0 0.0
2014-May-22 05:33N 51°16' E 004°24'0 0.0
2014-May-22 04:33N 51°16' E 004°24'0 0.0
2014-May-22 03:33N 51°16' E 004°24'0 0.0
2014-May-22 02:33N 51°16' E 004°24'0 0.0
2014-May-22 01:33N 51°16' E 004°24'0 0.0
2014-May-22 00:33N 51°16' E 004°24'0 0.0
2014-May-21 23:45N 51°16' E 004°24'0 0.0
2014-May-21 22:33N 51°16' E 004°24'0 0.0
2014-May-21 21:33N 51°16' E 004°24'0 0.0
2014-May-21 20:33N 51°16' E 004°24'0 0.0
2014-May-21 19:33N 51°16' E 004°24'0 0.0
2014-May-21 18:33N 51°16' E 004°24'0 0.0
2014-May-21 16:33N 51°16' E 004°24'0 0.0
2014-May-21 15:33N 51°16' E 004°24'0 0.0
2014-May-21 14:33N 51°16' E 004°24'0 0.0
2014-May-21 12:33N 51°16' E 004°24'0 0.0
2014-May-21 11:33N 51°16' E 004°24'0 0.0
2014-May-21 10:33N 51°16' E 004°24'0 0.0
2014-May-21 09:33N 51°16' E 004°24'0 0.0
2014-May-21 08:33N 51°16' E 004°24'0 0.0
2014-May-21 07:33N 51°16' E 004°24'0 0.0
2014-May-21 06:33N 51°16' E 004°24'0 0.0
2014-May-21 05:33N 51°16' E 004°24'0 0.0
2014-May-21 04:33N 51°16' E 004°24'0 0.0
2014-May-21 03:33N 51°16' E 004°24'0 0.0
2014-May-21 02:33N 51°16' E 004°24'0 0.0
2014-May-21 01:33N 51°16' E 004°24'0 0.0
2014-May-21 00:33N 51°16' E 004°24'0 0.0
2014-May-20 23:33N 51°16' E 004°24'0 0.0
2014-May-20 22:30N 51°16' E 004°24'0 0.0
2014-May-20 21:33N 51°16' E 004°24'0 0.0
2014-May-20 20:30N 51°16' E 004°24'0 0.0
2014-May-20 19:33N 51°16' E 004°24'0 0.0
2014-May-20 18:33N 51°16' E 004°24'0 0.0
2014-May-20 17:33N 51°16' E 004°24'0 0.0
2014-May-20 16:33N 51°16' E 004°24'0 0.0
2014-May-20 15:33N 51°16' E 004°24'0 0.0
2014-May-20 14:33N 51°16' E 004°24'0 0.0
2014-May-20 13:33N 51°16' E 004°24'0 0.0
2014-May-20 12:33N 51°16' E 004°24'0 0.0
2014-May-20 11:33N 51°16' E 004°24'0 0.0
2014-May-20 10:33N 51°16' E 004°24'0 0.0
2014-May-20 09:33N 51°16' E 004°24'0 0.0
2014-May-20 08:33N 51°16' E 004°24'0 0.0
2014-May-20 07:33N 51°16' E 004°24'0 0.0
2014-May-20 06:33N 51°16' E 004°24'0 0.0
2014-May-20 05:33N 51°16' E 004°24'0 0.0
2014-May-20 04:33N 51°16' E 004°24'0 0.0
2014-May-20 03:33N 51°16' E 004°24'0 0.0
2014-May-20 02:33N 51°16' E 004°24'0 0.0
2014-May-20 01:33N 51°16' E 004°24'0 0.0
2014-May-20 00:33N 51°16' E 004°24'0 0.0
2014-May-19 23:33N 51°16' E 004°24'0 0.0
2014-May-19 22:33N 51°16' E 004°24'0 0.0
2014-May-19 21:33N 51°16' E 004°24'0 0.1
2014-May-19 20:33N 51°16' E 004°23'0 0.0
2014-May-19 19:33N 51°16' E 004°23'0 0.0
2014-May-19 18:30N 51°16' E 004°23'0 0.0
2014-May-19 17:33N 51°16' E 004°23'0 0.0
2014-May-19 15:33N 51°16' E 004°23'0 0.0
2014-May-19 14:33N 51°16' E 004°23'0 0.0
2014-May-19 13:33N 51°16' E 004°23'0 0.0
2014-May-19 12:33N 51°16' E 004°23'0 0.0
2014-May-19 11:33N 51°16' E 004°23'0 0.0
2014-May-19 10:33N 51°16' E 004°23'0 0.0
2014-May-19 09:30N 51°16' E 004°23'0 0.0
2014-May-19 08:33N 51°16' E 004°23'0 0.0
2014-May-19 07:33N 51°16' E 004°23'0 0.0
2014-May-19 06:33N 51°16' E 004°23'0 0.0
2014-May-19 05:33N 51°16' E 004°23'0 0.0
2014-May-19 04:33N 51°16' E 004°23'0 0.0
2014-May-19 03:33N 51°16' E 004°23'0 0.0
2014-May-19 02:33N 51°16' E 004°23'0 0.0
2014-May-19 01:33N 51°16' E 004°23'0 0.0
2014-May-19 00:33N 51°16' E 004°23'0 0.0
2014-May-18 23:33N 51°16' E 004°23'0 0.0
2014-May-18 22:33N 51°16' E 004°23'0 0.0
2014-May-18 21:33N 51°16' E 004°23'0 0.0
2014-May-18 20:33N 51°16' E 004°23'0 0.0
2014-May-18 19:33N 51°16' E 004°23'0 0.0
2014-May-18 18:33N 51°16' E 004°23'0 0.0
2014-May-18 17:33N 51°16' E 004°23'1 0.8
2014-May-18 16:33N 51°15' E 004°23'5 5.3
2014-May-18 15:33N 51°19' E 004°19'2 1.7
2014-May-18 14:33N 51°21' E 004°17'4 3.8
2014-May-18 13:33N 51°23' E 004°13'9 9.2
2014-May-18 12:33N 51°26' E 003°58'10 9.7
2014-May-18 11:33N 51°22' E 003°44'9 8.5
2014-May-18 10:33N 51°27' E 003°32'1312.9
2014-May-18 09:33N 51°38' E 003°21'1211.1
2014-May-18 08:30N 51°46' E 003°07'9 9.6
2014-May-18 07:33N 51°48' E 002°53'1612.1
2014-May-18 06:13N 52°02' E 002°40'4311.7
2014-May-18 02:33N 52°45' E 002°40'30912.7
2014-May-17 02:16N 57°09' W 002°02'2 2.4
2014-May-17 01:32N 57°09' W 002°05'0 0.0
2014-May-17 00:32N 57°09' W 002°05'0 0.0
2014-May-16 23:32N 57°09' W 002°05'0 0.0
2014-May-16 22:32N 57°09' W 002°05'0 0.0
2014-May-16 21:32N 57°09' W 002°05'0 0.0
2014-May-16 20:32N 57°09' W 002°05'0 0.0
2014-May-16 19:26N 57°09' W 002°05'0 0.0
2014-May-16 18:32N 57°09' W 002°05'0 0.0
2014-May-16 17:26N 57°09' W 002°05'0 0.0
2014-May-16 16:20N 57°09' W 002°05'0 0.0
2014-May-16 15:32N 57°09' W 002°05'0 0.0
2014-May-16 14:20N 57°09' W 002°05'0 0.0
2014-May-16 13:32N 57°09' W 002°05'0 0.0
2014-May-16 12:29N 57°09' W 002°05'0 0.0
2014-May-16 11:32N 57°09' W 002°05'0 0.0
2014-May-16 10:26N 57°09' W 002°05'0 0.0
2014-May-16 09:32N 57°09' W 002°05'0 0.0
2014-May-16 08:29N 57°09' W 002°05'0 0.0
2014-May-16 07:32N 57°09' W 002°05'0 0.0
2014-May-16 06:32N 57°09' W 002°05'0 0.0
2014-May-16 05:26N 57°09' W 002°05'0 0.0
2014-May-16 04:20N 57°09' W 002°05'0 0.0
2014-May-16 03:32N 57°09' W 002°05'0 0.0
2014-May-16 02:32N 57°09' W 002°05'0 0.0
2014-May-16 01:32N 57°09' W 002°05'0 0.0
2014-May-16 00:32N 57°09' W 002°05'0 0.0
2014-May-15 23:26N 57°09' W 002°05'0 0.0
2014-May-15 22:32N 57°09' W 002°05'0 0.0
2014-May-15 21:32N 57°09' W 002°05'0 0.0
2014-May-15 20:29N 57°09' W 002°05'0 0.0
2014-May-15 19:32N 57°09' W 002°05'0 0.0
2014-May-15 18:32N 57°09' W 002°05'0 0.0
2014-May-15 17:32N 57°09' W 002°05'0 0.0
2014-May-15 15:23N 57°09' W 002°05'0 0.0
2014-May-15 14:32N 57°09' W 002°05'0 0.0
2014-May-15 13:32N 57°09' W 002°05'0 0.0
2014-May-15 12:29N 57°09' W 002°05'0 0.0
2014-May-15 11:32N 57°09' W 002°05'0 0.0
2014-May-15 10:32N 57°09' W 002°05'0 0.0
2014-May-15 09:32N 57°09' W 002°05'  

Dump ship's entire track history